Time;durP1;ratioP1;P1;durP2;ratioP2;P2;SDS_P1;SDS_P2;PMS_P1;PMS_P2;Temp;Humidity;BMP_temperature;BMP_pressure;BME280_temperature;BME280_humidity;BME280_pressure;Samples;Min_cycle;Max_cycle;Signal;HPM_P1;HPM_P2
2023/12/03 00:01:09;;;;;;;1999.90;999.90;;;-0.20;99.90;;;;;;5052799;28;20413;-77
2023/12/03 00:03:35;;;;;;;1999.90;999.90;;;-0.30;99.90;;;;;;5050963;28;20446;-76
2023/12/03 00:06:02;;;;;;;1999.90;999.90;;;-0.30;99.90;;;;;;5053977;28;20409;-74
2023/12/03 00:08:29;;;;;;;1999.90;999.90;;;-0.30;99.90;;;;;;5052166;28;20455;-74
2023/12/03 00:10:56;;;;;;;1999.90;999.90;;;-0.20;99.90;;;;;;5052737;28;20452;-76
2023/12/03 00:13:22;;;;;;;1999.90;999.90;;;0.00;99.90;;;;;;5051158;28;20464;-74
2023/12/03 00:15:49;;;;;;;1999.90;999.90;;;0.00;99.90;;;;;;5051395;28;20969;-75
2023/12/03 00:18:17;;;;;;;1999.90;999.90;;;0.10;99.90;;;;;;5051993;28;20432;-77
2023/12/03 00:20:44;;;;;;;1999.90;999.90;;;0.40;99.90;;;;;;5052866;28;20416;-78
2023/12/03 00:23:11;;;;;;;1999.90;999.90;;;0.60;99.90;;;;;;5054207;28;20413;-75
2023/12/03 00:25:38;;;;;;;1999.90;999.90;;;0.90;99.90;;;;;;5053726;28;20560;-78
2023/12/03 00:28:05;;;;;;;1999.90;999.90;;;0.10;99.90;;;;;;5054319;28;20459;-75
2023/12/03 00:30:31;;;;;;;1999.90;999.90;;;-0.10;99.90;;;;;;5053952;28;20453;-73
2023/12/03 00:32:58;;;;;;;1999.90;999.90;;;-0.20;99.90;;;;;;5053923;28;20487;-74
2023/12/03 00:35:26;;;;;;;1999.90;999.90;;;-0.30;99.90;;;;;;5053846;28;20444;-76
2023/12/03 00:37:53;;;;;;;1999.90;999.90;;;-0.30;99.90;;;;;;5050708;28;20456;-77
2023/12/03 00:40:19;;;;;;;1999.90;999.90;;;-0.30;99.90;;;;;;5053607;28;20487;-75
2023/12/03 00:42:46;;;;;;;1999.90;999.90;;;-0.30;99.90;;;;;;5053382;28;20413;-74
2023/12/03 00:45:13;;;;;;;1999.90;999.90;;;-0.10;99.90;;;;;;5053368;28;20421;-74
2023/12/03 00:47:39;;;;;;;1999.90;999.90;;;-0.30;99.90;;;;;;5053128;28;20409;-76
2023/12/03 00:50:07;;;;;;;1999.90;999.90;;;-0.20;99.90;;;;;;5046380;28;20435;-76
2023/12/03 00:52:35;;;;;;;1999.90;999.90;;;-0.20;99.90;;;;;;5052245;28;20444;-75
2023/12/03 00:55:03;;;;;;;1999.90;999.90;;;-0.20;99.90;;;;;;5052979;28;20826;-76
2023/12/03 00:57:30;;;;;;;1999.90;999.90;;;-0.20;99.90;;;;;;5052786;28;20425;-78
2023/12/03 00:59:57;;;;;;;1999.90;999.90;;;-0.30;99.90;;;;;;5052978;28;20554;-74
2023/12/03 01:02:24;;;;;;;1999.90;999.90;;;-0.30;99.90;;;;;;5051332;28;20487;-74
2023/12/03 01:04:50;;;;;;;1999.90;999.90;;;-0.30;99.90;;;;;;5052157;28;20455;-75
2023/12/03 01:07:17;;;;;;;1999.90;999.90;;;-0.20;99.90;;;;;;5047287;28;20434;-76
2023/12/03 01:09:45;;;;;;;1999.90;999.90;;;-0.20;99.90;;;;;;5054113;28;20482;-74
2023/12/03 01:12:12;;;;;;;1999.90;999.90;;;-0.10;99.90;;;;;;5053500;28;20773;-73
2023/12/03 01:14:39;;;;;;;1999.90;999.90;;;-0.20;99.90;;;;;;5053690;28;20834;-78
2023/12/03 01:17:05;;;;;;;1999.90;999.90;;;-0.30;99.90;;;;;;5050671;28;20473;-75
2023/12/03 01:19:32;;;;;;;1999.90;999.90;;;-0.30;99.90;;;;;;5051374;28;20418;-73
2023/12/03 01:21:59;;;;;;;1999.90;999.90;;;0.20;99.90;;;;;;5053472;28;20469;-74
2023/12/03 01:24:25;;;;;;;1999.90;999.90;;;-0.10;99.90;;;;;;5052483;28;20467;-77
2023/12/03 01:26:53;;;;;;;1999.90;999.90;;;-0.10;99.90;;;;;;5051992;28;20413;-74
2023/12/03 01:29:20;;;;;;;1999.90;999.90;;;-0.20;99.90;;;;;;5051884;28;20519;-75
2023/12/03 01:31:47;;;;;;;1999.90;999.90;;;-0.10;99.90;;;;;;5053362;28;20420;-75
2023/12/03 01:34:14;;;;;;;1999.90;999.90;;;-0.20;99.90;;;;;;5053316;28;20467;-75
2023/12/03 01:36:40;;;;;;;1999.90;999.90;;;-0.30;99.90;;;;;;5053836;28;20425;-77
2023/12/03 01:39:07;;;;;;;1999.90;999.90;;;-0.10;99.90;;;;;;5053473;28;20502;-75
2023/12/03 01:41:34;;;;;;;1999.90;999.90;;;-0.30;99.90;;;;;;5052215;28;20413;-76
2023/12/03 01:44:02;;;;;;;1999.90;999.90;;;-0.30;99.90;;;;;;5052780;28;20957;-75
2023/12/03 01:46:28;;;;;;;1999.90;999.90;;;-0.30;99.90;;;;;;5052855;28;20439;-78
2023/12/03 01:48:56;;;;;;;1999.90;999.90;;;-0.20;99.90;;;;;;5052691;28;20752;-74
2023/12/03 01:51:22;;;;;;;1999.90;999.90;;;-0.20;99.90;;;;;;5053230;28;20417;-74
2023/12/03 01:53:50;;;;;;;1999.90;999.90;;;0.00;99.90;;;;;;5052616;28;20900;-75
2023/12/03 01:56:17;;;;;;;1999.90;999.90;;;-0.30;99.90;;;;;;5052065;28;20958;-75
2023/12/03 01:58:50;;;;;;;1999.90;999.90;;;-0.30;99.90;;;;;;5052687;28;20523;-74
2023/12/03 02:01:19;;;;;;;1999.90;999.90;;;-0.20;99.90;;;;;;5053186;28;20445;-78
2023/12/03 02:03:46;;;;;;;1999.90;999.90;;;-0.30;99.90;;;;;;5053342;28;20508;-75
2023/12/03 02:06:12;;;;;;;1999.90;999.90;;;-0.40;99.90;;;;;;5046558;28;20434;-71
2023/12/03 02:08:39;;;;;;;1999.90;999.90;;;-0.40;99.90;;;;;;5050303;28;20408;-75
2023/12/03 02:11:07;;;;;;;1999.90;999.90;;;-0.50;99.90;;;;;;5051339;28;20494;-78
2023/12/03 02:13:35;;;;;;;1999.90;999.90;;;-0.40;99.90;;;;;;5051474;28;20918;-77
2023/12/03 02:16:02;;;;;;;1999.90;999.90;;;-0.10;99.90;;;;;;5050411;28;20409;-76
2023/12/03 02:18:34;;;;;;;1999.90;999.90;;;-0.30;99.90;;;;;;5048616;28;20456;-74
2023/12/03 02:21:01;;;;;;;1999.90;999.90;;;-0.20;99.90;;;;;;5050328;28;20414;-73
2023/12/03 02:23:30;;;;;;;1999.90;999.90;;;0.10;99.90;;;;;;5050112;28;20421;-74
2023/12/03 02:25:57;;;;;;;1999.90;999.90;;;-0.20;99.90;;;;;;5051735;28;20413;-75
2023/12/03 02:28:24;;;;;;;1999.90;999.90;;;-0.20;99.90;;;;;;5050947;28;20417;-71
2023/12/03 02:30:50;;;;;;;1999.90;999.90;;;-0.20;99.90;;;;;;5047415;28;20414;-76
2023/12/03 02:33:17;;;;;;;1999.90;999.90;;;-0.10;99.90;;;;;;5051815;28;20471;-77
2023/12/03 02:35:44;;;;;;;1999.90;999.90;;;-0.10;99.90;;;;;;5051849;28;20425;-70
2023/12/03 02:38:10;;;;;;;1999.90;999.90;;;-0.10;99.90;;;;;;5051684;28;20506;-75
2023/12/03 02:40:39;;;;;;;1999.90;999.90;;;0.10;99.90;;;;;;5050912;28;20437;-74
2023/12/03 02:43:06;;;;;;;1999.90;999.90;;;0.00;99.90;;;;;;5052267;28;20417;-72
2023/12/03 02:45:33;;;;;;;1999.90;999.90;;;-0.10;99.90;;;;;;5044690;28;20413;-74
2023/12/03 02:48:00;;;;;;;1999.90;999.90;;;-0.20;99.90;;;;;;5047822;28;20486;-76
2023/12/03 02:50:27;;;;;;;1999.90;999.90;;;-0.20;99.90;;;;;;5048324;28;20469;-72
2023/12/03 02:52:53;;;;;;;1999.90;999.90;;;0.10;99.90;;;;;;5044571;28;20462;-75
2023/12/03 02:55:20;;;;;;;1999.90;999.90;;;-0.10;99.90;;;;;;5052502;28;20413;-74
2023/12/03 02:57:48;;;;;;;1999.90;999.90;;;0.50;99.90;;;;;;5052618;28;20492;-72
2023/12/03 03:00:16;;;;;;;1999.90;999.90;;;0.20;99.90;;;;;;5054056;28;20913;-74
2023/12/03 03:02:43;;;;;;;1999.90;999.90;;;0.20;99.90;;;;;;5054798;28;20475;-74
2023/12/03 03:05:09;;;;;;;1999.90;999.90;;;0.30;99.90;;;;;;5055772;28;20425;-74
2023/12/03 03:07:36;;;;;;;1999.90;999.90;;;0.40;99.90;;;;;;5055281;28;20417;-74
2023/12/03 03:10:02;;;;;;;1999.90;999.90;;;0.70;99.90;;;;;;5055341;28;20416;-74
2023/12/03 03:12:29;;;;;;;1999.90;999.90;;;0.30;99.90;;;;;;5055258;28;20423;-73
2023/12/03 03:14:57;;;;;;;1999.90;999.90;;;0.30;99.90;;;;;;5054232;28;20420;-76
2023/12/03 03:17:24;;;;;;;1999.90;999.90;;;0.30;99.90;;;;;;5050833;28;20460;-75
2023/12/03 03:19:51;;;;;;;1999.90;999.90;;;0.30;99.90;;;;;;5055011;28;20440;-70
2023/12/03 03:22:17;;;;;;;1999.90;999.90;;;0.60;99.90;;;;;;5055186;28;20471;-74
2023/12/03 03:24:44;;;;;;;1999.90;999.90;;;0.30;99.90;;;;;;5054603;28;20440;-75
2023/12/03 03:27:11;;;;;;;1999.90;999.90;;;0.40;99.90;;;;;;5054513;28;20471;-76
2023/12/03 03:29:37;;;;;;;1999.90;999.90;;;0.40;99.90;;;;;;5052403;28;20899;-74
2023/12/03 03:32:06;;;;;;;1999.90;999.90;;;0.40;99.90;;;;;;5055011;28;20421;-78
2023/12/03 03:34:33;;;;;;;1999.90;999.90;;;0.40;99.90;;;;;;5054860;28;20424;-72
2023/12/03 03:36:59;;;;;;;1999.90;999.90;;;0.30;99.90;;;;;;5054427;28;20505;-74
2023/12/03 03:39:26;;;;;;;1999.90;999.90;;;0.80;99.90;;;;;;5053395;28;20433;-75
2023/12/03 03:41:53;;;;;;;1999.90;999.90;;;0.30;99.90;;;;;;5054074;28;20405;-73
2023/12/03 03:44:19;;;;;;;1999.90;999.90;;;0.30;99.90;;;;;;5054239;28;20463;-75
2023/12/03 03:46:46;;;;;;;1999.90;999.90;;;0.40;99.90;;;;;;5054409;28;20409;-72
2023/12/03 03:49:14;;;;;;;1999.90;999.90;;;0.20;99.90;;;;;;5054548;28;20409;-75
2023/12/03 03:51:42;;;;;;;1999.90;999.90;;;0.40;99.90;;;;;;5052555;28;20442;-75
2023/12/03 03:54:08;;;;;;;1999.90;999.90;;;0.30;99.90;;;;;;5054277;28;20414;-76
2023/12/03 03:56:35;;;;;;;1999.90;999.90;;;0.30;99.90;;;;;;5053737;28;20435;-71
2023/12/03 03:59:02;;;;;;;1999.90;999.90;;;0.60;99.90;;;;;;5054168;28;20437;-76
2023/12/03 04:01:29;;;;;;;1999.90;999.90;;;0.20;99.90;;;;;;5055230;28;20424;-72
2023/12/03 04:03:56;;;;;;;1999.90;999.90;;;0.10;99.90;;;;;;5054342;28;20421;-71
2023/12/03 04:06:24;;;;;;;1999.90;999.90;;;0.10;99.90;;;;;;5054649;28;20474;-74
2023/12/03 04:08:51;;;;;;;1999.90;999.90;;;0.00;99.90;;;;;;5054662;28;20413;-76
2023/12/03 04:11:17;;;;;;;1999.90;999.90;;;0.00;99.90;;;;;;5054897;28;20413;-69
2023/12/03 04:13:44;;;;;;;1999.90;999.90;;;-0.10;99.90;;;;;;5054734;28;20412;-75
2023/12/03 04:16:21;;;;;;;1999.90;999.90;;;0.40;99.90;;;;;;5046078;28;20461;-76
2023/12/03 04:18:47;;;;;;;1999.90;999.90;;;0.30;99.90;;;;;;5054164;28;21936;-74
2023/12/03 04:21:15;;;;;;;1999.90;999.90;;;0.60;99.90;;;;;;5054802;28;20417;-74
2023/12/03 04:23:43;;;;;;;1999.90;999.90;;;0.20;99.90;;;;;;5052645;28;20417;-74
2023/12/03 04:26:11;;;;;;;1999.90;999.90;;;0.10;99.90;;;;;;5048078;28;20418;-75
2023/12/03 04:28:40;;;;;;;1999.90;999.90;;;0.10;99.90;;;;;;5052585;28;20429;-75
2023/12/03 04:31:16;;;;;;;1999.90;999.90;;;0.50;99.90;;;;;;5053851;28;20592;-76
2023/12/03 04:33:43;;;;;;;1999.90;999.90;;;0.10;99.90;;;;;;5053879;28;20516;-76
2023/12/03 04:36:11;;;;;;;1999.90;999.90;;;0.10;99.90;;;;;;5053727;28;20470;-77
2023/12/03 04:38:37;;;;;;;1999.90;999.90;;;0.00;99.90;;;;;;5054871;28;20483;-71
2023/12/03 04:41:06;;;;;;;1999.90;999.90;;;0.40;99.90;;;;;;5052687;28;20441;-78
2023/12/03 04:43:33;;;;;;;1999.90;999.90;;;0.10;99.90;;;;;;5053316;28;20952;-75
2023/12/03 04:46:04;;;;;;;1999.90;999.90;;;0.10;99.90;;;;;;5053681;28;20443;-73
2023/12/03 04:48:30;;;;;;;1999.90;999.90;;;0.10;99.90;;;;;;5053868;28;20413;-76
2023/12/03 04:50:57;;;;;;;1999.90;999.90;;;0.20;99.90;;;;;;5046405;28;20413;-76
2023/12/03 04:53:24;;;;;;;1999.90;999.90;;;0.20;99.90;;;;;;5053004;28;20433;-74
2023/12/03 04:55:50;;;;;;;1999.90;999.90;;;0.30;99.90;;;;;;5053488;28;20421;-74
2023/12/03 04:58:18;;;;;;;1999.90;999.90;;;0.10;99.90;;;;;;5053549;28;20417;-74
2023/12/03 05:00:45;;;;;;;1999.90;999.90;;;0.10;99.90;;;;;;5053411;28;20436;-74
2023/12/03 05:03:12;;;;;;;1999.90;999.90;;;0.10;99.90;;;;;;5053531;28;20431;-74
2023/12/03 05:05:39;;;;;;;1999.90;999.90;;;0.00;99.90;;;;;;5052543;28;20437;-74
2023/12/03 05:08:06;;;;;;;1999.90;999.90;;;0.00;99.90;;;;;;5054779;28;20437;-76
2023/12/03 05:10:32;;;;;;;1999.90;999.90;;;-0.20;99.90;;;;;;5054148;28;20414;-74
2023/12/03 05:12:59;;;;;;;1999.90;999.90;;;0.00;99.90;;;;;;5046063;28;20470;-74
2023/12/03 05:15:27;;;;;;;1999.90;999.90;;;0.10;99.90;;;;;;5053831;28;20432;-73
2023/12/03 05:17:56;;;;;;;1999.90;999.90;;;0.10;99.90;;;;;;5052012;28;21297;-77
2023/12/03 05:20:22;;;;;;;1999.90;999.90;;;0.10;99.90;;;;;;5052001;28;20434;-75
2023/12/03 05:22:51;;;;;;;1999.90;999.90;;;0.10;99.90;;;;;;5053015;28;20413;-75
2023/12/03 05:25:19;;;;;;;1999.90;999.90;;;0.50;99.90;;;;;;5053017;28;20760;-75
2023/12/03 05:27:45;;;;;;;1999.90;999.90;;;0.20;99.90;;;;;;5050221;28;20574;-75
2023/12/03 05:30:14;;;;;;;1999.90;999.90;;;0.80;99.90;;;;;;5051354;28;20433;-76
2023/12/03 05:32:42;;;;;;;1999.90;999.90;;;0.30;99.90;;;;;;5052386;28;20421;-75
2023/12/03 05:35:09;;;;;;;1999.90;999.90;;;0.40;99.90;;;;;;5052352;28;20941;-75
2023/12/03 05:37:35;;;;;;;1999.90;999.90;;;0.20;99.90;;;;;;5052539;28;20421;-76
2023/12/03 05:40:02;;;;;;;1999.90;999.90;;;0.30;99.90;;;;;;5051331;28;20487;-75
2023/12/03 05:42:29;;;;;;;1999.90;999.90;;;0.10;99.90;;;;;;5052646;28;20787;-73
2023/12/03 05:44:56;;;;;;;1999.90;999.90;;;0.10;99.90;;;;;;5048919;28;20450;-74
2023/12/03 05:47:22;;;;;;;1999.90;999.90;;;0.00;99.90;;;;;;5047993;28;20447;-75
2023/12/03 05:49:50;;;;;;;1999.90;999.90;;;0.10;99.90;;;;;;5051452;28;20437;-74
2023/12/03 05:52:17;;;;;;;1999.90;999.90;;;0.10;99.90;;;;;;5052188;28;20451;-75
2023/12/03 05:54:44;;;;;;;1999.90;999.90;;;0.00;99.90;;;;;;5052459;28;20927;-75
2023/12/03 05:57:11;;;;;;;1999.90;999.90;;;0.10;99.90;;;;;;5052299;28;20409;-75
2023/12/03 05:59:37;;;;;;;1999.90;999.90;;;0.10;99.90;;;;;;5050986;28;20435;-76
2023/12/03 06:02:04;;;;;;;1999.90;999.90;;;0.10;99.90;;;;;;5052086;28;20421;-75
2023/12/03 06:04:31;;;;;;;1999.90;999.90;;;0.10;99.90;;;;;;5052589;28;20896;-73
2023/12/03 06:06:59;;;;;;;1999.90;999.90;;;0.10;99.90;;;;;;5051594;28;20418;-75
2023/12/03 06:09:26;;;;;;;1999.90;999.90;;;0.60;99.90;;;;;;5051160;28;20421;-75
2023/12/03 06:11:52;;;;;;;1999.90;999.90;;;0.70;99.90;;;;;;5051568;28;20479;-75
2023/12/03 06:14:19;;;;;;;1999.90;999.90;;;0.70;99.90;;;;;;5051551;28;20895;-74
2023/12/03 06:16:45;;;;;;;1999.90;999.90;;;0.30;99.90;;;;;;5051538;28;20471;-75
2023/12/03 06:19:12;;;;;;;1999.90;999.90;;;0.30;99.90;;;;;;5051760;28;20425;-75
2023/12/03 06:21:39;;;;;;;1999.90;999.90;;;0.30;99.90;;;;;;5050671;28;20435;-74
2023/12/03 06:24:07;;;;;;;1999.90;999.90;;;0.30;99.90;;;;;;5051581;28;20460;-77
2023/12/03 06:26:34;;;;;;;1999.90;999.90;;;0.30;99.90;;;;;;5050415;28;21004;-75
2023/12/03 06:29:00;;;;;;;1999.90;999.90;;;0.30;99.90;;;;;;5051430;28;20443;-72
2023/12/03 06:31:27;;;;;;;1999.90;999.90;;;0.50;99.90;;;;;;5053487;28;20891;-75
2023/12/03 06:33:54;;;;;;;1999.90;999.90;;;0.50;99.90;;;;;;5053867;28;20961;-73
2023/12/03 06:36:21;;;;;;;1999.90;999.90;;;0.80;99.90;;;;;;5055454;28;20417;-75
2023/12/03 06:38:48;;;;;;;1999.90;999.90;;;1.20;99.90;;;;;;5055487;28;20483;-74
2023/12/03 06:41:16;;;;;;;1999.90;999.90;;;1.00;99.90;;;;;;5056061;28;20409;-78
2023/12/03 06:43:43;;;;;;;1999.90;999.90;;;0.80;99.90;;;;;;5055610;28;20416;-78
2023/12/03 06:46:09;;;;;;;1999.90;999.90;;;1.00;99.90;;;;;;5051878;28;20428;-74
2023/12/03 06:48:36;;;;;;;1999.90;999.90;;;0.60;99.90;;;;;;5055135;28;20555;-74
2023/12/03 06:51:03;;;;;;;1999.90;999.90;;;0.70;99.90;;;;;;5055377;28;20415;-74
2023/12/03 06:53:30;;;;;;;1999.90;999.90;;;0.40;99.90;;;;;;5054852;28;20421;-73
2023/12/03 06:55:56;;;;;;;1999.90;999.90;;;0.60;99.90;;;;;;5054814;28;20409;-74
2023/12/03 06:58:24;;;;;;;1999.90;999.90;;;0.70;99.90;;;;;;5053961;28;20429;-74
2023/12/03 07:00:51;;;;;;;1999.90;999.90;;;0.70;99.90;;;;;;5053818;28;20425;-74
2023/12/03 07:03:18;;;;;;;1999.90;999.90;;;0.50;99.90;;;;;;5055135;28;20409;-78
2023/12/03 07:05:45;;;;;;;1999.90;999.90;;;0.80;99.90;;;;;;5045377;28;20528;-70
2023/12/03 07:08:12;;;;;;;1999.90;999.90;;;0.70;99.90;;;;;;5044483;28;20412;-78
2023/12/03 07:10:38;;;;;;;1999.90;999.90;;;0.70;99.90;;;;;;5047610;28;20433;-74
2023/12/03 07:13:05;;;;;;;1999.90;999.90;;;0.80;99.90;;;;;;5054644;28;20443;-74
2023/12/03 07:15:33;;;;;;;1999.90;999.90;;;0.70;99.90;;;;;;5054557;28;20413;-73
2023/12/03 07:18:00;;;;;;;1999.90;999.90;;;0.50;99.90;;;;;;5048756;28;20441;-73
2023/12/03 07:20:26;;;;;;;1999.90;999.90;;;0.60;99.90;;;;;;5053885;28;20865;-74
2023/12/03 07:22:55;;;;;;;1999.90;999.90;;;0.60;99.90;;;;;;5054344;28;20435;-74
2023/12/03 07:25:22;;;;;;;1999.90;999.90;;;1.10;99.90;;;;;;5051031;28;20429;-72
2023/12/03 07:27:48;;;;;;;1999.90;999.90;;;0.70;99.90;;;;;;5053643;28;20409;-76
2023/12/03 07:30:15;;;;;;;1999.90;999.90;;;0.80;99.90;;;;;;5049306;28;20946;-75
2023/12/03 07:32:43;;;;;;;1999.90;999.90;;;0.80;99.90;;;;;;5054394;28;20582;-74
2023/12/03 07:35:10;;;;;;;1999.90;999.90;;;1.00;99.90;;;;;;5054186;28;20453;-74
2023/12/03 07:37:40;;;;;;;1999.90;999.90;;;1.10;99.90;;;;;;5053398;28;20413;-74
2023/12/03 07:40:09;;;;;;;1999.90;999.90;;;1.00;99.90;;;;;;5053972;28;20534;-74
2023/12/03 07:42:36;;;;;;;1999.90;999.90;;;1.10;99.90;;;;;;5049188;28;20522;-74
2023/12/03 07:45:03;;;;;;;1999.90;999.90;;;1.00;99.90;;;;;;5054206;28;20413;-72
2023/12/03 07:47:29;;;;;;;1999.90;999.90;;;0.90;99.90;;;;;;5053927;28;20500;-73
2023/12/03 07:49:57;;;;;;;1999.90;999.90;;;0.90;99.90;;;;;;5053655;28;20438;-77
2023/12/03 07:52:24;;;;;;;1999.90;999.90;;;1.00;99.90;;;;;;5052669;28;20504;-77
2023/12/03 07:54:51;;;;;;;1999.90;999.90;;;1.20;99.90;;;;;;5050858;28;20429;-71
2023/12/03 07:57:17;;;;;;;1999.90;999.90;;;1.00;99.90;;;;;;5050227;28;20494;-73
2023/12/03 07:59:44;;;;;;;1999.90;999.90;;;1.00;99.90;;;;;;5052746;28;20429;-73
2023/12/03 08:02:11;;;;;;;1999.90;999.90;;;1.00;99.90;;;;;;5044362;28;20500;-77
2023/12/03 08:04:38;;;;;;;1999.90;999.90;;;1.00;99.90;;;;;;5034320;28;20490;-72
2023/12/03 08:07:06;;;;;;;1999.90;999.90;;;1.40;99.90;;;;;;5040740;28;20483;-76
2023/12/03 08:09:33;;;;;;;1999.90;999.90;;;1.00;99.90;;;;;;5045202;28;20421;-74
2023/12/03 08:12:00;;;;;;;1999.90;999.90;;;1.00;99.90;;;;;;5050455;28;20421;-71
2023/12/03 08:14:26;;;;;;;1999.90;999.90;;;1.00;99.90;;;;;;5048116;28;20413;-69
2023/12/03 08:16:53;;;;;;;1999.90;999.90;;;1.00;99.90;;;;;;5047511;28;20428;-73
2023/12/03 08:19:20;;;;;;;1999.90;999.90;;;1.00;99.90;;;;;;5052676;28;20409;-73
2023/12/03 08:21:47;;;;;;;1999.90;999.90;;;1.10;99.90;;;;;;5049205;28;20463;-73
2023/12/03 08:24:15;;;;;;;1999.90;999.90;;;1.20;99.90;;;;;;5051129;28;20842;-72
2023/12/03 08:26:42;;;;;;;1999.90;999.90;;;1.30;99.90;;;;;;5049751;28;20417;-72
2023/12/03 08:29:09;;;;;;;1999.90;999.90;;;1.20;99.90;;;;;;5052986;28;20416;-75
2023/12/03 08:31:36;;;;;;;1999.90;999.90;;;1.20;99.90;;;;;;5051782;28;20416;-72
2023/12/03 08:34:02;;;;;;;1999.90;999.90;;;1.30;99.90;;;;;;5046483;28;20439;-73
2023/12/03 08:36:31;;;;;;;1999.90;999.90;;;1.20;99.90;;;;;;5047229;28;20443;-74
2023/12/03 08:38:58;;;;;;;1999.90;999.90;;;1.30;99.90;;;;;;5046340;28;20482;-73
2023/12/03 08:41:26;;;;;;;1999.90;999.90;;;1.20;99.90;;;;;;5043787;28;20425;-73
2023/12/03 08:43:52;;;;;;;1999.90;999.90;;;1.30;99.90;;;;;;5050491;28;20487;-73
2023/12/03 08:46:20;;;;;;;1999.90;999.90;;;1.30;99.90;;;;;;5052911;28;20950;-76
2023/12/03 08:48:47;;;;;;;1999.90;999.90;;;1.50;99.90;;;;;;5048529;28;20440;-73
2023/12/03 08:51:14;;;;;;;1999.90;999.90;;;1.40;99.90;;;;;;5051282;28;20451;-75
2023/12/03 08:53:41;;;;;;;1999.90;999.90;;;1.90;99.90;;;;;;5048356;28;20456;-73
2023/12/03 08:56:11;;;;;;;1999.90;999.90;;;1.60;99.90;;;;;;5053059;28;20422;-73
2023/12/03 08:58:39;;;;;;;1999.90;999.90;;;1.70;99.90;;;;;;5051255;28;20455;-71
2023/12/03 09:01:07;;;;;;;1999.90;999.90;;;1.80;99.90;;;;;;5046736;28;20544;-73
2023/12/03 09:03:34;;;;;;;1999.90;999.90;;;1.90;99.90;;;;;;5048822;28;20432;-73
2023/12/03 09:06:01;;;;;;;1999.90;999.90;;;1.90;99.90;;;;;;5051340;28;20437;-73
2023/12/03 09:08:28;;;;;;;1999.90;999.90;;;1.80;99.90;;;;;;5046224;28;20459;-71
2023/12/03 09:10:54;;;;;;;1999.90;999.90;;;1.90;99.90;;;;;;5043289;28;20429;-74
2023/12/03 09:13:21;;;;;;;1999.90;999.90;;;1.90;99.90;;;;;;5052171;28;20475;-74
2023/12/03 09:15:50;;;;;;;1999.90;999.90;;;2.10;99.90;;;;;;5051312;28;20487;-72
2023/12/03 09:18:17;;;;;;;1999.90;999.90;;;2.20;99.90;;;;;;5047157;28;20802;-71
2023/12/03 09:20:44;;;;;;;1999.90;999.90;;;2.30;99.90;;;;;;5051687;28;20516;-74
2023/12/03 09:23:10;;;;;;;1999.90;999.90;;;2.40;99.90;;;;;;5049555;28;20417;-72
2023/12/03 09:25:37;;;;;;;1999.90;999.90;;;2.50;99.90;;;;;;5050950;28;20440;-75
2023/12/03 09:28:04;;;;;;;1999.90;999.90;;;2.40;99.90;;;;;;5049426;28;20417;-75
2023/12/03 09:30:31;;;;;;;1999.90;999.90;;;2.40;99.90;;;;;;5049297;28;20497;-70
2023/12/03 09:32:59;;;;;;;1999.90;999.90;;;2.40;99.90;;;;;;5044784;28;20445;-72
2023/12/03 09:35:29;;;;;;;1999.90;999.90;;;2.40;99.90;;;;;;5047230;28;20448;-72
2023/12/03 09:37:55;;;;;;;1999.90;999.90;;;2.60;99.90;;;;;;5042874;28;20461;-73
2023/12/03 09:40:22;;;;;;;1999.90;999.90;;;2.60;99.90;;;;;;5049306;28;20898;-73
2023/12/03 09:42:50;;;;;;;1999.90;999.90;;;2.60;99.90;;;;;;5049461;28;20439;-73
2023/12/03 09:45:19;;;;;;;1999.90;999.90;;;2.60;99.90;;;;;;5053308;28;20414;-72
2023/12/03 09:47:50;;;;;;;1999.90;999.90;;;2.50;99.90;;;;;;5051906;28;20504;-73
2023/12/03 09:50:19;;;;;;;1999.90;999.90;;;2.60;99.90;;;;;;5051957;28;20463;-72
2023/12/03 09:52:47;;;;;;;1999.90;999.90;;;2.70;99.90;;;;;;5050981;28;20769;-71
2023/12/03 09:55:15;;;;;;;1999.90;999.90;;;2.90;99.90;;;;;;5050769;28;20417;-74
2023/12/03 09:57:44;;;;;;;1999.90;999.90;;;2.90;99.90;;;;;;5050446;28;20437;-76
2023/12/03 10:00:11;;;;;;;1999.90;999.90;;;3.00;99.90;;;;;;5050951;28;21044;-75
2023/12/03 10:02:38;;;;;;;1999.90;999.90;;;3.10;99.90;;;;;;5051173;28;20468;-73
2023/12/03 10:05:06;;;;;;;1999.90;999.90;;;3.20;99.90;;;;;;5050483;28;20939;-74
2023/12/03 10:07:34;;;;;;;1999.90;999.90;;;3.20;99.90;;;;;;5046738;28;20429;-74
2023/12/03 10:10:04;;;;;;;1999.90;999.90;;;3.30;99.90;;;;;;5050571;28;20414;-72
2023/12/03 10:12:42;;;;;;;1999.90;999.90;;;3.20;99.90;;;;;;5049845;28;20429;-73
2023/12/03 10:15:10;;;;;;;1999.90;999.90;;;3.10;99.90;;;;;;5047872;28;20437;-74
2023/12/03 10:17:38;;;;;;;1999.90;999.90;;;3.10;99.90;;;;;;5051700;28;20409;-74
2023/12/03 10:20:27;;;;;;;1999.90;999.90;;;3.00;99.90;;;;;;5048589;28;20461;-75
2023/12/03 10:22:58;;;;;;;1999.90;999.90;;;3.00;99.90;;;;;;5052003;28;20921;-75
2023/12/03 10:25:32;;;;;;;1999.90;999.90;;;2.90;99.90;;;;;;5047410;28;20512;-76
2023/12/03 10:28:00;;;;;;;1999.90;999.90;;;2.90;99.90;;;;;;5046524;28;20886;-75
2023/12/03 10:30:27;;;;;;;1999.90;999.90;;;2.80;99.90;;;;;;5051720;28;20401;-75
2023/12/03 10:32:54;;;;;;;1999.90;999.90;;;3.00;99.90;;;;;;5053162;28;20413;-73
2023/12/03 10:35:21;;;;;;;1999.90;999.90;;;3.10;99.90;;;;;;5053125;28;20421;-73
2023/12/03 10:37:48;;;;;;;1999.90;999.90;;;3.00;99.90;;;;;;5052720;28;20414;-73
2023/12/03 10:40:18;;;;;;;1999.90;999.90;;;3.10;99.90;;;;;;5050109;28;20433;-75
2023/12/03 10:42:45;;;;;;;1999.90;999.90;;;3.00;99.90;;;;;;5052810;28;20907;-73
2023/12/03 10:45:13;;;;;;;1999.90;999.90;;;3.10;99.90;;;;;;5052743;28;20417;-73
2023/12/03 10:47:41;;;;;;;1999.90;999.90;;;3.10;99.90;;;;;;5052390;28;20532;-73
2023/12/03 10:50:10;;;;;;;1999.90;999.90;;;3.10;99.90;;;;;;5051184;28;20486;-73
2023/12/03 10:52:38;;;;;;;1999.90;999.90;;;3.10;99.90;;;;;;5051868;28;20432;-73
2023/12/03 10:55:06;;;;;;;1999.90;999.90;;;3.20;99.90;;;;;;5052879;28;20443;-73
2023/12/03 10:57:39;;;;;;;1999.90;999.90;;;3.20;99.90;;;;;;5052734;28;20421;-73
2023/12/03 11:00:09;;;;;;;1999.90;999.90;;;3.20;99.90;;;;;;5045413;28;20413;-73
2023/12/03 11:02:42;;;;;;;1999.90;999.90;;;3.20;99.90;;;;;;5043881;28;20422;-73
2023/12/03 11:05:11;;;;;;;1999.90;999.90;;;3.20;99.90;;;;;;5045142;28;20429;-74
2023/12/03 11:07:39;;;;;;;1999.90;999.90;;;3.10;99.90;;;;;;5049360;28;20417;-74
2023/12/03 11:10:09;;;;;;;1999.90;999.90;;;3.10;99.90;;;;;;5052276;28;20409;-73
2023/12/03 11:12:38;;;;;;;1999.90;999.90;;;3.10;99.90;;;;;;5052635;28;20414;-74
2023/12/03 11:15:08;;;;;;;1999.90;999.90;;;3.20;99.90;;;;;;5052372;28;20416;-74
2023/12/03 11:17:40;;;;;;;1999.90;999.90;;;3.00;99.90;;;;;;5052789;28;20803;-72
2023/12/03 11:20:10;;;;;;;1999.90;999.90;;;3.00;99.90;;;;;;5054344;28;20658;-73
2023/12/03 11:22:59;;;;;;;1999.90;999.90;;;2.70;99.90;;;;;;5055406;28;20424;-73
2023/12/03 11:25:32;;;;;;;1999.90;999.90;;;2.80;99.90;;;;;;5056377;28;20414;-74
2023/12/03 11:28:01;;;;;;;1999.90;999.90;;;2.80;99.90;;;;;;5055768;28;20405;-73
2023/12/03 11:30:46;;;;;;;1999.90;999.90;;;2.80;99.90;;;;;;5055945;28;20413;-72
2023/12/03 11:33:13;;;;;;;1999.90;999.90;;;2.70;99.90;;;;;;5056552;28;20409;-73
2023/12/03 11:35:42;;;;;;;1999.90;999.90;;;2.80;99.90;;;;;;5054467;28;21015;-72
2023/12/03 11:38:14;;;;;;;1999.90;999.90;;;2.60;99.90;;;;;;5055721;28;20420;-73
2023/12/03 11:40:41;;;;;;;1999.90;999.90;;;2.60;99.90;;;;;;5055739;28;20503;-69
2023/12/03 11:43:23;;;;;;;1999.90;999.90;;;2.70;99.90;;;;;;5055808;28;20818;-73
2023/12/03 11:45:51;;;;;;;1999.90;999.90;;;2.70;99.90;;;;;;5056400;28;20417;-72
2023/12/03 11:48:18;;;;;;;1999.90;999.90;;;2.80;99.90;;;;;;5055260;28;20409;-76
2023/12/03 11:50:47;;;;;;;1999.90;999.90;;;2.80;99.90;;;;;;5055824;28;20424;-73
2023/12/03 11:53:15;;;;;;;1999.90;999.90;;;2.70;99.90;;;;;;5055795;28;20906;-72
2023/12/03 11:55:46;;;;;;;1999.90;999.90;;;2.90;99.90;;;;;;5055346;28;20414;-73
2023/12/03 11:58:14;;;;;;;1999.90;999.90;;;2.90;99.90;;;;;;5055159;28;20523;-72
2023/12/03 12:00:42;;;;;;;1999.90;999.90;;;2.90;99.90;;;;;;5055622;28;20429;-73
2023/12/03 12:03:09;;;;;;;1999.90;999.90;;;2.90;99.90;;;;;;5053648;28;20435;-72
2023/12/03 12:05:43;;;;;;;1999.90;999.90;;;3.20;99.90;;;;;;5055221;28;20421;-75
2023/12/03 12:08:10;;;;;;;1999.90;999.90;;;3.10;99.90;;;;;;5054928;28;20469;-73